sensor_id;sensor_type;location;lat;lon;timestamp;P1;durP1;ratioP1;P2;durP2;ratioP2
9892;SDS011;4985;49.092;8.542;2023-05-23T00:00:36;24.33;;;15.98;;
9892;SDS011;4985;49.092;8.542;2023-05-23T00:03:02;27.15;;;16.42;;
9892;SDS011;4985;49.092;8.542;2023-05-23T00:05:29;26.62;;;17.35;;
9892;SDS011;4985;49.092;8.542;2023-05-23T00:07:56;24.90;;;15.70;;
9892;SDS011;4985;49.092;8.542;2023-05-23T00:10:22;26.52;;;18.08;;
9892;SDS011;4985;49.092;8.542;2023-05-23T00:12:50;25.12;;;16.10;;
9892;SDS011;4985;49.092;8.542;2023-05-23T00:15:17;27.50;;;17.33;;
9892;SDS011;4985;49.092;8.542;2023-05-23T00:17:44;25.73;;;17.83;;
9892;SDS011;4985;49.092;8.542;2023-05-23T00:20:11;29.12;;;18.98;;
9892;SDS011;4985;49.092;8.542;2023-05-23T00:22:38;25.35;;;17.20;;
9892;SDS011;4985;49.092;8.542;2023-05-23T00:25:07;25.55;;;17.00;;
9892;SDS011;4985;49.092;8.542;2023-05-23T00:27:34;23.08;;;16.02;;
9892;SDS011;4985;49.092;8.542;2023-05-23T00:30:02;30.85;;;17.80;;
9892;SDS011;4985;49.092;8.542;2023-05-23T00:32:29;26.73;;;18.45;;
9892;SDS011;4985;49.092;8.542;2023-05-23T00:34:55;26.67;;;18.27;;
9892;SDS011;4985;49.092;8.542;2023-05-23T00:37:22;28.35;;;19.40;;
9892;SDS011;4985;49.092;8.542;2023-05-23T00:39:48;33.15;;;20.40;;
9892;SDS011;4985;49.092;8.542;2023-05-23T00:42:15;27.37;;;19.40;;
9892;SDS011;4985;49.092;8.542;2023-05-23T00:44:41;28.45;;;17.65;;
9892;SDS011;4985;49.092;8.542;2023-05-23T00:47:09;35.50;;;22.08;;
9892;SDS011;4985;49.092;8.542;2023-05-23T00:49:37;28.60;;;19.20;;
9892;SDS011;4985;49.092;8.542;2023-05-23T00:52:04;28.10;;;17.55;;
9892;SDS011;4985;49.092;8.542;2023-05-23T00:54:31;28.02;;;18.27;;
9892;SDS011;4985;49.092;8.542;2023-05-23T00:56:59;26.60;;;18.00;;
9892;SDS011;4985;49.092;8.542;2023-05-23T00:59:26;24.50;;;16.37;;
9892;SDS011;4985;49.092;8.542;2023-05-23T01:01:53;31.48;;;19.17;;
9892;SDS011;4985;49.092;8.542;2023-05-23T01:04:22;29.15;;;18.65;;
9892;SDS011;4985;49.092;8.542;2023-05-23T01:06:50;28.65;;;18.90;;
9892;SDS011;4985;49.092;8.542;2023-05-23T01:09:18;31.80;;;19.55;;
9892;SDS011;4985;49.092;8.542;2023-05-23T01:11:48;28.62;;;18.45;;
9892;SDS011;4985;49.092;8.542;2023-05-23T01:14:22;29.90;;;18.17;;
9892;SDS011;4985;49.092;8.542;2023-05-23T01:16:55;24.73;;;17.15;;
9892;SDS011;4985;49.092;8.542;2023-05-23T01:19:34;27.10;;;17.70;;
9892;SDS011;4985;49.092;8.542;2023-05-23T01:22:20;30.65;;;18.40;;
9892;SDS011;4985;49.092;8.542;2023-05-23T01:24:54;25.65;;;17.75;;
9892;SDS011;4985;49.092;8.542;2023-05-23T01:27:38;30.98;;;19.33;;
9892;SDS011;4985;49.092;8.542;2023-05-23T01:30:10;27.70;;;17.17;;
9892;SDS011;4985;49.092;8.542;2023-05-23T01:32:38;26.65;;;18.23;;
9892;SDS011;4985;49.092;8.542;2023-05-23T01:35:05;24.12;;;16.60;;
9892;SDS011;4985;49.092;8.542;2023-05-23T01:37:33;28.87;;;19.48;;
9892;SDS011;4985;49.092;8.542;2023-05-23T01:39:59;35.67;;;20.50;;
9892;SDS011;4985;49.092;8.542;2023-05-23T01:42:26;27.37;;;19.17;;
9892;SDS011;4985;49.092;8.542;2023-05-23T01:44:54;30.20;;;19.45;;
9892;SDS011;4985;49.092;8.542;2023-05-23T01:47:23;28.12;;;18.02;;
9892;SDS011;4985;49.092;8.542;2023-05-23T01:49:50;29.02;;;18.15;;
9892;SDS011;4985;49.092;8.542;2023-05-23T01:52:17;28.38;;;17.95;;
9892;SDS011;4985;49.092;8.542;2023-05-23T01:54:46;28.62;;;18.52;;
9892;SDS011;4985;49.092;8.542;2023-05-23T01:57:13;27.05;;;17.25;;
9892;SDS011;4985;49.092;8.542;2023-05-23T01:59:40;27.30;;;18.52;;
9892;SDS011;4985;49.092;8.542;2023-05-23T02:02:08;24.48;;;17.08;;
9892;SDS011;4985;49.092;8.542;2023-05-23T02:04:36;27.30;;;17.37;;
9892;SDS011;4985;49.092;8.542;2023-05-23T02:07:02;25.77;;;17.35;;
9892;SDS011;4985;49.092;8.542;2023-05-23T02:09:30;29.40;;;18.98;;
9892;SDS011;4985;49.092;8.542;2023-05-23T02:11:56;25.17;;;17.60;;
9892;SDS011;4985;49.092;8.542;2023-05-23T02:14:23;29.90;;;18.40;;
9892;SDS011;4985;49.092;8.542;2023-05-23T02:16:50;29.75;;;19.17;;
9892;SDS011;4985;49.092;8.542;2023-05-23T02:19:19;29.12;;;19.77;;
9892;SDS011;4985;49.092;8.542;2023-05-23T02:21:45;32.58;;;19.20;;
9892;SDS011;4985;49.092;8.542;2023-05-23T02:24:12;26.33;;;17.52;;
9892;SDS011;4985;49.092;8.542;2023-05-23T02:26:38;29.02;;;17.92;;
9892;SDS011;4985;49.092;8.542;2023-05-23T02:29:05;26.48;;;16.85;;
9892;SDS011;4985;49.092;8.542;2023-05-23T02:31:32;23.90;;;16.90;;
9892;SDS011;4985;49.092;8.542;2023-05-23T02:33:59;25.25;;;17.73;;
9892;SDS011;4985;49.092;8.542;2023-05-23T02:36:27;25.10;;;17.75;;
9892;SDS011;4985;49.092;8.542;2023-05-23T02:38:53;24.40;;;16.95;;
9892;SDS011;4985;49.092;8.542;2023-05-23T02:41:20;25.05;;;16.70;;
9892;SDS011;4985;49.092;8.542;2023-05-23T02:43:47;25.75;;;17.33;;
9892;SDS011;4985;49.092;8.542;2023-05-23T02:46:13;24.55;;;17.08;;
9892;SDS011;4985;49.092;8.542;2023-05-23T02:48:40;22.27;;;16.08;;
9892;SDS011;4985;49.092;8.542;2023-05-23T02:51:07;24.92;;;16.50;;
9892;SDS011;4985;49.092;8.542;2023-05-23T02:53:34;25.40;;;17.20;;
9892;SDS011;4985;49.092;8.542;2023-05-23T02:56:01;24.73;;;16.25;;
9892;SDS011;4985;49.092;8.542;2023-05-23T02:58:28;22.70;;;16.20;;
9892;SDS011;4985;49.092;8.542;2023-05-23T03:00:55;23.05;;;16.15;;
9892;SDS011;4985;49.092;8.542;2023-05-23T03:03:22;26.20;;;16.58;;
9892;SDS011;4985;49.092;8.542;2023-05-23T03:05:49;25.42;;;17.42;;
9892;SDS011;4985;49.092;8.542;2023-05-23T03:08:15;22.60;;;16.58;;
9892;SDS011;4985;49.092;8.542;2023-05-23T03:10:43;24.98;;;16.67;;
9892;SDS011;4985;49.092;8.542;2023-05-23T03:13:10;20.80;;;15.15;;
9892;SDS011;4985;49.092;8.542;2023-05-23T03:15:36;24.20;;;17.08;;
9892;SDS011;4985;49.092;8.542;2023-05-23T03:18:03;22.50;;;15.43;;
9892;SDS011;4985;49.092;8.542;2023-05-23T03:20:29;23.12;;;16.08;;
9892;SDS011;4985;49.092;8.542;2023-05-23T03:22:56;24.67;;;17.58;;
9892;SDS011;4985;49.092;8.542;2023-05-23T03:25:23;22.45;;;15.98;;
9892;SDS011;4985;49.092;8.542;2023-05-23T03:27:51;19.55;;;16.08;;
9892;SDS011;4985;49.092;8.542;2023-05-23T03:30:18;23.85;;;16.33;;
9892;SDS011;4985;49.092;8.542;2023-05-23T03:32:44;21.73;;;15.52;;
9892;SDS011;4985;49.092;8.542;2023-05-23T03:35:11;22.40;;;15.25;;
9892;SDS011;4985;49.092;8.542;2023-05-23T03:37:38;21.25;;;15.02;;
9892;SDS011;4985;49.092;8.542;2023-05-23T03:40:05;21.70;;;15.07;;
9892;SDS011;4985;49.092;8.542;2023-05-23T03:42:33;21.45;;;15.65;;
9892;SDS011;4985;49.092;8.542;2023-05-23T03:45:03;20.77;;;14.73;;
9892;SDS011;4985;49.092;8.542;2023-05-23T03:47:30;20.27;;;16.17;;
9892;SDS011;4985;49.092;8.542;2023-05-23T03:49:56;22.33;;;15.68;;
9892;SDS011;4985;49.092;8.542;2023-05-23T03:52:23;24.20;;;15.63;;
9892;SDS011;4985;49.092;8.542;2023-05-23T03:54:49;18.98;;;14.75;;
9892;SDS011;4985;49.092;8.542;2023-05-23T03:57:16;19.33;;;15.65;;
9892;SDS011;4985;49.092;8.542;2023-05-23T03:59:43;19.92;;;15.60;;
9892;SDS011;4985;49.092;8.542;2023-05-23T04:02:10;21.77;;;15.30;;
9892;SDS011;4985;49.092;8.542;2023-05-23T04:04:37;19.70;;;14.80;;
9892;SDS011;4985;49.092;8.542;2023-05-23T04:07:05;21.02;;;15.05;;
9892;SDS011;4985;49.092;8.542;2023-05-23T04:09:33;20.08;;;16.08;;
9892;SDS011;4985;49.092;8.542;2023-05-23T04:11:59;22.52;;;16.05;;
9892;SDS011;4985;49.092;8.542;2023-05-23T04:14:26;19.20;;;15.45;;
9892;SDS011;4985;49.092;8.542;2023-05-23T04:16:53;21.40;;;14.63;;
9892;SDS011;4985;49.092;8.542;2023-05-23T04:19:21;18.65;;;15.15;;
9892;SDS011;4985;49.092;8.542;2023-05-23T04:21:47;19.73;;;15.15;;
9892;SDS011;4985;49.092;8.542;2023-05-23T04:24:14;18.65;;;14.55;;
9892;SDS011;4985;49.092;8.542;2023-05-23T04:26:41;21.37;;;15.65;;
9892;SDS011;4985;49.092;8.542;2023-05-23T04:29:07;22.80;;;15.68;;
9892;SDS011;4985;49.092;8.542;2023-05-23T04:31:36;18.48;;;14.95;;
9892;SDS011;4985;49.092;8.542;2023-05-23T04:34:02;18.80;;;14.48;;
9892;SDS011;4985;49.092;8.542;2023-05-23T04:36:30;19.90;;;15.25;;
9892;SDS011;4985;49.092;8.542;2023-05-23T04:38:57;21.80;;;15.82;;
9892;SDS011;4985;49.092;8.542;2023-05-23T04:41:23;21.27;;;15.02;;
9892;SDS011;4985;49.092;8.542;2023-05-23T04:43:50;19.95;;;14.35;;
9892;SDS011;4985;49.092;8.542;2023-05-23T04:46:18;19.70;;;14.77;;
9892;SDS011;4985;49.092;8.542;2023-05-23T04:48:47;18.00;;;14.15;;
9892;SDS011;4985;49.092;8.542;2023-05-23T04:51:14;24.83;;;17.98;;
9892;SDS011;4985;49.092;8.542;2023-05-23T04:53:42;18.77;;;14.40;;
9892;SDS011;4985;49.092;8.542;2023-05-23T04:56:09;19.20;;;14.10;;
9892;SDS011;4985;49.092;8.542;2023-05-23T04:58:35;22.30;;;14.98;;
9892;SDS011;4985;49.092;8.542;2023-05-23T05:01:02;19.55;;;15.48;;
9892;SDS011;4985;49.092;8.542;2023-05-23T05:03:30;20.80;;;14.87;;
9892;SDS011;4985;49.092;8.542;2023-05-23T05:05:57;21.17;;;16.25;;
9892;SDS011;4985;49.092;8.542;2023-05-23T05:08:23;18.62;;;14.43;;
9892;SDS011;4985;49.092;8.542;2023-05-23T05:10:51;20.62;;;15.35;;
9892;SDS011;4985;49.092;8.542;2023-05-23T05:13:19;22.20;;;16.40;;
9892;SDS011;4985;49.092;8.542;2023-05-23T05:15:45;21.50;;;14.93;;
9892;SDS011;4985;49.092;8.542;2023-05-23T05:18:12;19.20;;;15.65;;
9892;SDS011;4985;49.092;8.542;2023-05-23T05:20:40;17.17;;;14.35;;
9892;SDS011;4985;49.092;8.542;2023-05-23T05:23:06;18.10;;;14.73;;
9892;SDS011;4985;49.092;8.542;2023-05-23T05:25:33;18.50;;;14.40;;
9892;SDS011;4985;49.092;8.542;2023-05-23T05:28:03;20.98;;;15.27;;
9892;SDS011;4985;49.092;8.542;2023-05-23T05:30:30;20.92;;;16.37;;
9892;SDS011;4985;49.092;8.542;2023-05-23T05:32:59;16.17;;;12.77;;
9892;SDS011;4985;49.092;8.542;2023-05-23T05:35:26;19.33;;;14.60;;
9892;SDS011;4985;49.092;8.542;2023-05-23T05:37:52;16.67;;;13.57;;
9892;SDS011;4985;49.092;8.542;2023-05-23T05:40:19;18.77;;;14.30;;
9892;SDS011;4985;49.092;8.542;2023-05-23T05:42:46;16.85;;;13.80;;
9892;SDS011;4985;49.092;8.542;2023-05-23T05:45:14;17.12;;;13.55;;
9892;SDS011;4985;49.092;8.542;2023-05-23T05:47:41;18.02;;;14.15;;
9892;SDS011;4985;49.092;8.542;2023-05-23T05:50:07;18.75;;;16.37;;
9892;SDS011;4985;49.092;8.542;2023-05-23T05:52:35;19.27;;;14.20;;
9892;SDS011;4985;49.092;8.542;2023-05-23T05:55:04;15.43;;;13.38;;
9892;SDS011;4985;49.092;8.542;2023-05-23T05:57:31;17.95;;;14.30;;
9892;SDS011;4985;49.092;8.542;2023-05-23T05:59:58;18.55;;;14.68;;
9892;SDS011;4985;49.092;8.542;2023-05-23T06:02:26;19.20;;;13.90;;
9892;SDS011;4985;49.092;8.542;2023-05-23T06:04:52;15.27;;;11.32;;
9892;SDS011;4985;49.092;8.542;2023-05-23T06:07:19;17.20;;;13.90;;
9892;SDS011;4985;49.092;8.542;2023-05-23T06:09:46;13.40;;;9.52;;
9892;SDS011;4985;49.092;8.542;2023-05-23T06:12:12;14.23;;;11.02;;
9892;SDS011;4985;49.092;8.542;2023-05-23T06:14:39;12.05;;;9.88;;
9892;SDS011;4985;49.092;8.542;2023-05-23T06:17:05;14.05;;;10.15;;
9892;SDS011;4985;49.092;8.542;2023-05-23T06:19:34;18.02;;;12.30;;
9892;SDS011;4985;49.092;8.542;2023-05-23T06:22:02;13.93;;;10.80;;
9892;SDS011;4985;49.092;8.542;2023-05-23T06:24:29;13.90;;;11.12;;
9892;SDS011;4985;49.092;8.542;2023-05-23T06:26:55;13.82;;;12.37;;
9892;SDS011;4985;49.092;8.542;2023-05-23T06:29:22;14.60;;;11.02;;
9892;SDS011;4985;49.092;8.542;2023-05-23T06:31:48;11.68;;;9.38;;
9892;SDS011;4985;49.092;8.542;2023-05-23T06:34:15;12.25;;;9.32;;
9892;SDS011;4985;49.092;8.542;2023-05-23T06:36:43;12.18;;;9.00;;
9892;SDS011;4985;49.092;8.542;2023-05-23T06:39:11;11.70;;;9.45;;
9892;SDS011;4985;49.092;8.542;2023-05-23T06:41:37;15.50;;;12.05;;
9892;SDS011;4985;49.092;8.542;2023-05-23T06:44:04;12.65;;;9.00;;
9892;SDS011;4985;49.092;8.542;2023-05-23T06:46:31;13.15;;;9.25;;
9892;SDS011;4985;49.092;8.542;2023-05-23T06:48:57;12.60;;;8.50;;
9892;SDS011;4985;49.092;8.542;2023-05-23T06:51:24;11.45;;;9.13;;
9892;SDS011;4985;49.092;8.542;2023-05-23T06:53:52;13.13;;;8.60;;
9892;SDS011;4985;49.092;8.542;2023-05-23T06:56:20;10.95;;;7.97;;
9892;SDS011;4985;49.092;8.542;2023-05-23T06:58:47;10.23;;;8.18;;
9892;SDS011;4985;49.092;8.542;2023-05-23T07:01:14;10.23;;;6.97;;
9892;SDS011;4985;49.092;8.542;2023-05-23T07:03:40;13.75;;;9.85;;
9892;SDS011;4985;49.092;8.542;2023-05-23T07:06:09;13.57;;;10.38;;
9892;SDS011;4985;49.092;8.542;2023-05-23T07:08:36;14.38;;;9.32;;
9892;SDS011;4985;49.092;8.542;2023-05-23T07:11:05;11.20;;;8.50;;
9892;SDS011;4985;49.092;8.542;2023-05-23T07:13:32;9.95;;;8.02;;
9892;SDS011;4985;49.092;8.542;2023-05-23T07:15:58;12.55;;;9.75;;
9892;SDS011;4985;49.092;8.542;2023-05-23T07:18:25;10.35;;;8.27;;
9892;SDS011;4985;49.092;8.542;2023-05-23T07:20:51;11.43;;;9.63;;
9892;SDS011;4985;49.092;8.542;2023-05-23T07:23:18;11.02;;;9.15;;
9892;SDS011;4985;49.092;8.542;2023-05-23T07:25:45;12.23;;;8.55;;
9892;SDS011;4985;49.092;8.542;2023-05-23T07:28:12;10.85;;;7.72;;
9892;SDS011;4985;49.092;8.542;2023-05-23T07:30:40;11.93;;;9.90;;
9892;SDS011;4985;49.092;8.542;2023-05-23T07:33:07;11.27;;;9.75;;
9892;SDS011;4985;49.092;8.542;2023-05-23T07:35:34;10.65;;;8.63;;
9892;SDS011;4985;49.092;8.542;2023-05-23T07:38:00;10.13;;;8.15;;
9892;SDS011;4985;49.092;8.542;2023-05-23T07:40:28;10.48;;;8.52;;
9892;SDS011;4985;49.092;8.542;2023-05-23T07:42:55;10.20;;;7.50;;
9892;SDS011;4985;49.092;8.542;2023-05-23T07:45:23;9.95;;;8.93;;
9892;SDS011;4985;49.092;8.542;2023-05-23T07:47:49;9.40;;;7.87;;
9892;SDS011;4985;49.092;8.542;2023-05-23T07:50:16;10.35;;;7.80;;
9892;SDS011;4985;49.092;8.542;2023-05-23T07:52:44;9.73;;;7.45;;
9892;SDS011;4985;49.092;8.542;2023-05-23T07:55:10;7.85;;;6.57;;
9892;SDS011;4985;49.092;8.542;2023-05-23T07:57:37;12.40;;;7.93;;
9892;SDS011;4985;49.092;8.542;2023-05-23T08:00:04;7.70;;;6.25;;
9892;SDS011;4985;49.092;8.542;2023-05-23T08:02:32;9.10;;;7.28;;
9892;SDS011;4985;49.092;8.542;2023-05-23T08:04:59;9.23;;;7.30;;
9892;SDS011;4985;49.092;8.542;2023-05-23T08:07:25;7.43;;;5.47;;
9892;SDS011;4985;49.092;8.542;2023-05-23T08:09:52;8.52;;;6.37;;
9892;SDS011;4985;49.092;8.542;2023-05-23T08:12:19;8.68;;;5.70;;
9892;SDS011;4985;49.092;8.542;2023-05-23T08:14:45;5.90;;;5.05;;
9892;SDS011;4985;49.092;8.542;2023-05-23T08:17:12;8.93;;;7.32;;
9892;SDS011;4985;49.092;8.542;2023-05-23T08:19:40;7.07;;;4.95;;
9892;SDS011;4985;49.092;8.542;2023-05-23T08:22:07;7.80;;;6.70;;
9892;SDS011;4985;49.092;8.542;2023-05-23T08:24:34;7.53;;;5.50;;
9892;SDS011;4985;49.092;8.542;2023-05-23T08:27:01;6.07;;;4.82;;
9892;SDS011;4985;49.092;8.542;2023-05-23T08:29:27;8.35;;;6.32;;
9892;SDS011;4985;49.092;8.542;2023-05-23T08:31:54;7.90;;;5.62;;
9892;SDS011;4985;49.092;8.542;2023-05-23T08:34:20;8.77;;;7.43;;
9892;SDS011;4985;49.092;8.542;2023-05-23T08:36:48;6.20;;;5.60;;
9892;SDS011;4985;49.092;8.542;2023-05-23T08:39:15;9.13;;;5.45;;
9892;SDS011;4985;49.092;8.542;2023-05-23T08:41:41;7.80;;;5.60;;
9892;SDS011;4985;49.092;8.542;2023-05-23T08:44:08;7.40;;;5.95;;
9892;SDS011;4985;49.092;8.542;2023-05-23T08:46:36;8.05;;;6.05;;
9892;SDS011;4985;49.092;8.542;2023-05-23T08:49:05;6.97;;;5.60;;
9892;SDS011;4985;49.092;8.542;2023-05-23T08:51:32;6.28;;;5.45;;
9892;SDS011;4985;49.092;8.542;2023-05-23T08:54:04;7.30;;;6.12;;
9892;SDS011;4985;49.092;8.542;2023-05-23T08:56:33;6.43;;;5.75;;
9892;SDS011;4985;49.092;8.542;2023-05-23T08:59:00;4.25;;;3.62;;
9892;SDS011;4985;49.092;8.542;2023-05-23T09:01:27;7.45;;;6.20;;
9892;SDS011;4985;49.092;8.542;2023-05-23T09:03:55;8.00;;;5.55;;
9892;SDS011;4985;49.092;8.542;2023-05-23T09:06:26;4.70;;;4.10;;
9892;SDS011;4985;49.092;8.542;2023-05-23T09:08:53;6.43;;;5.40;;
9892;SDS011;4985;49.092;8.542;2023-05-23T09:11:21;6.82;;;5.72;;
9892;SDS011;4985;49.092;8.542;2023-05-23T09:13:48;4.22;;;2.85;;
9892;SDS011;4985;49.092;8.542;2023-05-23T09:16:15;6.20;;;4.57;;
9892;SDS011;4985;49.092;8.542;2023-05-23T09:18:43;6.28;;;5.05;;
9892;SDS011;4985;49.092;8.542;2023-05-23T09:21:10;8.23;;;5.32;;
9892;SDS011;4985;49.092;8.542;2023-05-23T09:23:38;8.10;;;6.47;;
9892;SDS011;4985;49.092;8.542;2023-05-23T09:26:06;8.50;;;5.80;;
9892;SDS011;4985;49.092;8.542;2023-05-23T09:28:35;7.05;;;5.53;;
9892;SDS011;4985;49.092;8.542;2023-05-23T09:31:03;5.35;;;4.85;;
9892;SDS011;4985;49.092;8.542;2023-05-23T09:33:35;6.40;;;5.32;;
9892;SDS011;4985;49.092;8.542;2023-05-23T09:36:04;6.78;;;5.65;;
9892;SDS011;4985;49.092;8.542;2023-05-23T09:38:31;6.62;;;5.12;;
9892;SDS011;4985;49.092;8.542;2023-05-23T09:41:02;7.85;;;6.57;;
9892;SDS011;4985;49.092;8.542;2023-05-23T09:43:29;8.35;;;6.32;;
9892;SDS011;4985;49.092;8.542;2023-05-23T09:46:03;9.30;;;7.32;;
9892;SDS011;4985;49.092;8.542;2023-05-23T09:48:32;7.80;;;6.50;;
9892;SDS011;4985;49.092;8.542;2023-05-23T09:51:02;6.05;;;4.72;;
9892;SDS011;4985;49.092;8.542;2023-05-23T09:53:29;6.18;;;4.80;;
9892;SDS011;4985;49.092;8.542;2023-05-23T09:55:56;5.30;;;4.40;;
9892;SDS011;4985;49.092;8.542;2023-05-23T09:58:24;6.43;;;5.53;;
9892;SDS011;4985;49.092;8.542;2023-05-23T10:00:53;5.28;;;4.70;;
9892;SDS011;4985;49.092;8.542;2023-05-23T10:03:23;5.82;;;4.68;;
9892;SDS011;4985;49.092;8.542;2023-05-23T10:05:56;6.12;;;4.70;;
9892;SDS011;4985;49.092;8.542;2023-05-23T10:08:29;6.78;;;5.18;;
9892;SDS011;4985;49.092;8.542;2023-05-23T10:14:05;4.20;;;3.70;;
9892;SDS011;4985;49.092;8.542;2023-05-23T10:16:37;4.93;;;3.95;;
9892;SDS011;4985;49.092;8.542;2023-05-23T10:19:12;4.20;;;3.80;;
9892;SDS011;4985;49.092;8.542;2023-05-23T10:21:48;4.00;;;3.55;;
9892;SDS011;4985;49.092;8.542;2023-05-23T10:24:16;4.45;;;3.60;;
9892;SDS011;4985;49.092;8.542;2023-05-23T10:26:43;3.97;;;3.55;;
9892;SDS011;4985;49.092;8.542;2023-05-23T10:29:10;4.62;;;3.60;;
9892;SDS011;4985;49.092;8.542;2023-05-23T10:31:37;3.58;;;3.22;;
9892;SDS011;4985;49.092;8.542;2023-05-23T10:34:07;4.55;;;3.42;;
9892;SDS011;4985;49.092;8.542;2023-05-23T10:36:47;3.60;;;3.30;;
9892;SDS011;4985;49.092;8.542;2023-05-23T10:39:21;3.22;;;2.80;;
9892;SDS011;4985;49.092;8.542;2023-05-23T10:41:59;5.00;;;3.70;;
9892;SDS011;4985;49.092;8.542;2023-05-23T10:44:28;3.40;;;3.10;;
9892;SDS011;4985;49.092;8.542;2023-05-23T10:46:56;3.20;;;2.90;;
9892;SDS011;4985;49.092;8.542;2023-05-23T10:49:39;4.07;;;3.67;;
9892;SDS011;4985;49.092;8.542;2023-05-23T10:52:07;4.47;;;3.90;;
9892;SDS011;4985;49.092;8.542;2023-05-23T10:54:35;4.95;;;3.92;;
9892;SDS011;4985;49.092;8.542;2023-05-23T10:57:02;4.43;;;4.03;;
9892;SDS011;4985;49.092;8.542;2023-05-23T10:59:29;4.50;;;4.00;;
9892;SDS011;4985;49.092;8.542;2023-05-23T11:01:56;6.15;;;4.32;;
9892;SDS011;4985;49.092;8.542;2023-05-23T11:04:25;5.78;;;3.30;;
9892;SDS011;4985;49.092;8.542;2023-05-23T11:06:53;3.95;;;3.17;;
9892;SDS011;4985;49.092;8.542;2023-05-23T11:09:21;5.32;;;3.08;;
9892;SDS011;4985;49.092;8.542;2023-05-23T11:11:55;4.45;;;3.25;;
9892;SDS011;4985;49.092;8.542;2023-05-23T11:14:33;4.30;;;3.37;;
9892;SDS011;4985;49.092;8.542;2023-05-23T11:17:28;4.72;;;3.33;;
9892;SDS011;4985;49.092;8.542;2023-05-23T11:19:57;4.50;;;3.10;;
9892;SDS011;4985;49.092;8.542;2023-05-23T11:22:29;2.62;;;2.42;;
9892;SDS011;4985;49.092;8.542;2023-05-23T11:24:56;2.50;;;2.30;;
9892;SDS011;4985;49.092;8.542;2023-05-23T11:27:27;3.12;;;2.03;;
9892;SDS011;4985;49.092;8.542;2023-05-23T11:29:58;3.03;;;2.70;;
9892;SDS011;4985;49.092;8.542;2023-05-23T11:32:27;3.70;;;2.92;;
9892;SDS011;4985;49.092;8.542;2023-05-23T11:34:58;4.28;;;3.22;;
9892;SDS011;4985;49.092;8.542;2023-05-23T11:37:25;4.10;;;3.08;;
9892;SDS011;4985;49.092;8.542;2023-05-23T11:39:54;3.55;;;3.08;;
9892;SDS011;4985;49.092;8.542;2023-05-23T11:42:21;3.85;;;3.20;;
9892;SDS011;4985;49.092;8.542;2023-05-23T11:44:48;3.53;;;3.10;;
9892;SDS011;4985;49.092;8.542;2023-05-23T11:47:14;4.47;;;2.85;;
9892;SDS011;4985;49.092;8.542;2023-05-23T11:49:42;3.95;;;3.10;;
9892;SDS011;4985;49.092;8.542;2023-05-23T11:52:10;3.50;;;2.87;;
9892;SDS011;4985;49.092;8.542;2023-05-23T11:54:38;3.20;;;2.90;;
9892;SDS011;4985;49.092;8.542;2023-05-23T11:57:07;3.67;;;3.00;;
9892;SDS011;4985;49.092;8.542;2023-05-23T11:59:34;2.70;;;2.45;;
9892;SDS011;4985;49.092;8.542;2023-05-23T12:02:01;3.53;;;2.62;;
9892;SDS011;4985;49.092;8.542;2023-05-23T12:04:28;2.58;;;2.33;;
9892;SDS011;4985;49.092;8.542;2023-05-23T12:06:55;3.42;;;2.53;;
9892;SDS011;4985;49.092;8.542;2023-05-23T12:09:21;3.35;;;2.97;;
9892;SDS011;4985;49.092;8.542;2023-05-23T12:11:49;2.55;;;2.20;;
9892;SDS011;4985;49.092;8.542;2023-05-23T12:14:17;3.30;;;2.50;;
9892;SDS011;4985;49.092;8.542;2023-05-23T12:16:44;6.87;;;2.50;;
9892;SDS011;4985;49.092;8.542;2023-05-23T12:19:12;2.78;;;2.33;;
9892;SDS011;4985;49.092;8.542;2023-05-23T12:21:40;2.62;;;2.40;;
9892;SDS011;4985;49.092;8.542;2023-05-23T12:24:14;2.62;;;2.42;;
9892;SDS011;4985;49.092;8.542;2023-05-23T12:26:46;2.47;;;2.28;;
9892;SDS011;4985;49.092;8.542;2023-05-23T12:29:13;3.00;;;2.70;;
9892;SDS011;4985;49.092;8.542;2023-05-23T12:31:41;3.05;;;2.45;;
9892;SDS011;4985;49.092;8.542;2023-05-23T12:34:09;4.62;;;2.55;;
9892;SDS011;4985;49.092;8.542;2023-05-23T12:36:36;2.58;;;2.37;;
9892;SDS011;4985;49.092;8.542;2023-05-23T12:39:04;4.35;;;2.45;;
9892;SDS011;4985;49.092;8.542;2023-05-23T12:41:31;3.12;;;2.17;;
9892;SDS011;4985;49.092;8.542;2023-05-23T12:43:58;2.83;;;2.10;;
9892;SDS011;4985;49.092;8.542;2023-05-23T12:46:25;2.72;;;2.08;;
9892;SDS011;4985;49.092;8.542;2023-05-23T12:48:54;2.55;;;2.35;;
9892;SDS011;4985;49.092;8.542;2023-05-23T12:51:21;2.85;;;2.10;;
9892;SDS011;4985;49.092;8.542;2023-05-23T12:53:47;3.37;;;2.10;;
9892;SDS011;4985;49.092;8.542;2023-05-23T12:56:14;3.03;;;2.58;;
9892;SDS011;4985;49.092;8.542;2023-05-23T12:58:41;2.30;;;2.10;;
9892;SDS011;4985;49.092;8.542;2023-05-23T13:01:07;3.05;;;2.60;;
9892;SDS011;4985;49.092;8.542;2023-05-23T13:03:35;4.80;;;2.95;;
9892;SDS011;4985;49.092;8.542;2023-05-23T13:06:03;3.00;;;2.70;;
9892;SDS011;4985;49.092;8.542;2023-05-23T13:08:30;3.00;;;2.60;;
9892;SDS011;4985;49.092;8.542;2023-05-23T13:10:57;2.83;;;2.50;;
9892;SDS011;4985;49.092;8.542;2023-05-23T13:13:24;3.15;;;2.53;;
9892;SDS011;4985;49.092;8.542;2023-05-23T13:15:51;3.15;;;2.75;;
9892;SDS011;4985;49.092;8.542;2023-05-23T13:18:18;2.90;;;2.60;;
9892;SDS011;4985;49.092;8.542;2023-05-23T13:20:45;3.08;;;2.47;;
9892;SDS011;4985;49.092;8.542;2023-05-23T13:23:13;3.10;;;2.47;;
9892;SDS011;4985;49.092;8.542;2023-05-23T13:25:40;2.67;;;2.25;;
9892;SDS011;4985;49.092;8.542;2023-05-23T13:28:06;2.80;;;2.37;;
9892;SDS011;4985;49.092;8.542;2023-05-23T13:30:33;2.65;;;2.42;;
9892;SDS011;4985;49.092;8.542;2023-05-23T13:32:59;3.12;;;2.83;;
9892;SDS011;4985;49.092;8.542;2023-05-23T13:35:26;2.90;;;2.60;;
9892;SDS011;4985;49.092;8.542;2023-05-23T13:37:53;2.50;;;2.25;;
9892;SDS011;4985;49.092;8.542;2023-05-23T13:40:21;3.78;;;2.47;;
9892;SDS011;4985;49.092;8.542;2023-05-23T13:42:48;4.82;;;2.72;;
9892;SDS011;4985;49.092;8.542;2023-05-23T13:45:15;4.30;;;2.80;;
9892;SDS011;4985;49.092;8.542;2023-05-23T13:47:42;3.40;;;2.22;;
9892;SDS011;4985;49.092;8.542;2023-05-23T13:50:09;3.40;;;3.08;;
9892;SDS011;4985;49.092;8.542;2023-05-23T13:52:36;2.90;;;2.62;;
9892;SDS011;4985;49.092;8.542;2023-05-23T13:55:03;2.62;;;2.12;;
9892;SDS011;4985;49.092;8.542;2023-05-23T13:57:32;2.95;;;2.53;;
9892;SDS011;4985;49.092;8.542;2023-05-23T13:59:58;3.58;;;3.17;;
9892;SDS011;4985;49.092;8.542;2023-05-23T14:02:26;4.12;;;3.05;;
9892;SDS011;4985;49.092;8.542;2023-05-23T14:04:55;6.28;;;4.20;;
9892;SDS011;4985;49.092;8.542;2023-05-23T14:07:22;5.70;;;3.78;;
9892;SDS011;4985;49.092;8.542;2023-05-23T14:09:49;5.15;;;3.75;;
9892;SDS011;4985;49.092;8.542;2023-05-23T14:12:15;4.20;;;3.55;;
9892;SDS011;4985;49.092;8.542;2023-05-23T14:14:43;4.20;;;3.80;;
9892;SDS011;4985;49.092;8.542;2023-05-23T14:17:13;7.85;;;3.65;;
9892;SDS011;4985;49.092;8.542;2023-05-23T14:19:40;4.30;;;3.67;;
9892;SDS011;4985;49.092;8.542;2023-05-23T14:22:07;5.03;;;3.85;;
9892;SDS011;4985;49.092;8.542;2023-05-23T14:24:33;4.00;;;3.47;;
9892;SDS011;4985;49.092;8.542;2023-05-23T14:27:00;5.05;;;3.75;;
9892;SDS011;4985;49.092;8.542;2023-05-23T14:29:27;5.45;;;3.58;;
9892;SDS011;4985;49.092;8.542;2023-05-23T14:31:55;5.95;;;3.70;;
9892;SDS011;4985;49.092;8.542;2023-05-23T14:34:24;6.10;;;4.82;;
9892;SDS011;4985;49.092;8.542;2023-05-23T14:36:51;5.43;;;4.15;;
9892;SDS011;4985;49.092;8.542;2023-05-23T14:39:17;4.10;;;3.58;;
9892;SDS011;4985;49.092;8.542;2023-05-23T14:41:44;4.03;;;3.45;;
9892;SDS011;4985;49.092;8.542;2023-05-23T14:44:11;5.10;;;3.80;;
9892;SDS011;4985;49.092;8.542;2023-05-23T14:46:38;4.60;;;3.78;;
9892;SDS011;4985;49.092;8.542;2023-05-23T14:49:07;4.65;;;3.92;;
9892;SDS011;4985;49.092;8.542;2023-05-23T14:51:33;4.90;;;3.35;;
9892;SDS011;4985;49.092;8.542;2023-05-23T14:54:02;4.28;;;3.33;;
9892;SDS011;4985;49.092;8.542;2023-05-23T14:56:28;4.43;;;3.50;;
9892;SDS011;4985;49.092;8.542;2023-05-23T14:58:55;4.22;;;3.50;;
9892;SDS011;4985;49.092;8.542;2023-05-23T15:01:22;4.03;;;3.62;;
9892;SDS011;4985;49.092;8.542;2023-05-23T15:03:49;4.62;;;3.90;;
9892;SDS011;4985;49.092;8.542;2023-05-23T15:06:17;4.57;;;3.45;;
9892;SDS011;4985;49.092;8.542;2023-05-23T15:08:43;4.72;;;3.80;;